sensor_id;sensor_type;location;lat;lon;timestamp;P1;durP1;ratioP1;P2;durP2;ratioP2
16037;SDS011;8123;50.906;6.172;2022-12-18T00:00:46;46.63;;;17.13;;
16037;SDS011;8123;50.906;6.172;2022-12-18T00:03:12;50.95;;;17.40;;
16037;SDS011;8123;50.906;6.172;2022-12-18T00:05:51;56.85;;;16.73;;
16037;SDS011;8123;50.906;6.172;2022-12-18T00:08:17;41.95;;;13.77;;
16037;SDS011;8123;50.906;6.172;2022-12-18T00:10:44;49.30;;;17.50;;
16037;SDS011;8123;50.906;6.172;2022-12-18T00:13:10;50.20;;;16.02;;
16037;SDS011;8123;50.906;6.172;2022-12-18T00:15:37;46.38;;;17.77;;
16037;SDS011;8123;50.906;6.172;2022-12-18T00:18:03;51.90;;;17.20;;
16037;SDS011;8123;50.906;6.172;2022-12-18T00:20:30;43.90;;;15.70;;
16037;SDS011;8123;50.906;6.172;2022-12-18T00:22:56;46.00;;;16.48;;
16037;SDS011;8123;50.906;6.172;2022-12-18T00:25:22;59.97;;;15.27;;
16037;SDS011;8123;50.906;6.172;2022-12-18T00:27:48;45.45;;;13.70;;
16037;SDS011;8123;50.906;6.172;2022-12-18T00:30:13;35.00;;;14.10;;
16037;SDS011;8123;50.906;6.172;2022-12-18T00:32:39;42.23;;;16.37;;
16037;SDS011;8123;50.906;6.172;2022-12-18T00:35:06;37.13;;;15.68;;
16037;SDS011;8123;50.906;6.172;2022-12-18T00:37:35;40.30;;;16.05;;
16037;SDS011;8123;50.906;6.172;2022-12-18T00:40:00;42.75;;;15.43;;
16037;SDS011;8123;50.906;6.172;2022-12-18T00:42:26;39.33;;;16.70;;
16037;SDS011;8123;50.906;6.172;2022-12-18T00:45:10;45.40;;;14.50;;
16037;SDS011;8123;50.906;6.172;2022-12-18T00:47:36;40.43;;;14.40;;
16037;SDS011;8123;50.906;6.172;2022-12-18T00:50:02;37.97;;;14.73;;
16037;SDS011;8123;50.906;6.172;2022-12-18T00:52:27;48.53;;;15.40;;
16037;SDS011;8123;50.906;6.172;2022-12-18T00:54:53;36.37;;;15.43;;
16037;SDS011;8123;50.906;6.172;2022-12-18T00:57:19;37.63;;;14.80;;
16037;SDS011;8123;50.906;6.172;2022-12-18T00:59:44;44.63;;;16.17;;
16037;SDS011;8123;50.906;6.172;2022-12-18T01:02:10;37.40;;;14.23;;
16037;SDS011;8123;50.906;6.172;2022-12-18T01:04:38;30.45;;;13.60;;
16037;SDS011;8123;50.906;6.172;2022-12-18T01:07:04;33.20;;;14.03;;
16037;SDS011;8123;50.906;6.172;2022-12-18T01:09:29;43.80;;;16.07;;
16037;SDS011;8123;50.906;6.172;2022-12-18T01:11:55;60.23;;;15.70;;
16037;SDS011;8123;50.906;6.172;2022-12-18T01:14:21;36.10;;;13.73;;
16037;SDS011;8123;50.906;6.172;2022-12-18T01:16:46;29.73;;;13.07;;
16037;SDS011;8123;50.906;6.172;2022-12-18T01:19:12;39.50;;;14.77;;
16037;SDS011;8123;50.906;6.172;2022-12-18T01:21:37;38.67;;;14.17;;
16037;SDS011;8123;50.906;6.172;2022-12-18T01:24:03;42.33;;;15.27;;
16037;SDS011;8123;50.906;6.172;2022-12-18T01:26:30;35.90;;;13.52;;
16037;SDS011;8123;50.906;6.172;2022-12-18T01:28:56;50.03;;;15.70;;
16037;SDS011;8123;50.906;6.172;2022-12-18T01:33:49;39.28;;;13.55;;
16037;SDS011;8123;50.906;6.172;2022-12-18T01:36:16;38.38;;;13.70;;
16037;SDS011;8123;50.906;6.172;2022-12-18T01:38:45;32.58;;;14.18;;
16037;SDS011;8123;50.906;6.172;2022-12-18T01:41:12;35.90;;;12.93;;
16037;SDS011;8123;50.906;6.172;2022-12-18T01:46:22;26.00;;;11.82;;
16037;SDS011;8123;50.906;6.172;2022-12-18T01:48:50;30.98;;;12.27;;
16037;SDS011;8123;50.906;6.172;2022-12-18T01:51:18;39.28;;;14.02;;
16037;SDS011;8123;50.906;6.172;2022-12-18T01:53:44;37.63;;;14.00;;
16037;SDS011;8123;50.906;6.172;2022-12-18T01:56:12;38.60;;;14.13;;
16037;SDS011;8123;50.906;6.172;2022-12-18T01:58:48;41.33;;;13.35;;
16037;SDS011;8123;50.906;6.172;2022-12-18T02:01:15;30.95;;;11.50;;
16037;SDS011;8123;50.906;6.172;2022-12-18T02:03:42;33.33;;;10.87;;
16037;SDS011;8123;50.906;6.172;2022-12-18T02:11:23;23.42;;;10.38;;
16037;SDS011;8123;50.906;6.172;2022-12-18T02:28:27;30.77;;;11.80;;
16037;SDS011;8123;50.906;6.172;2022-12-18T02:30:57;32.42;;;12.50;;
16037;SDS011;8123;50.906;6.172;2022-12-18T02:33:27;26.83;;;11.60;;
16037;SDS011;8123;50.906;6.172;2022-12-18T02:35:54;25.17;;;11.05;;
16037;SDS011;8123;50.906;6.172;2022-12-18T02:38:21;33.08;;;12.27;;
16037;SDS011;8123;50.906;6.172;2022-12-18T02:40:48;27.25;;;10.90;;
16037;SDS011;8123;50.906;6.172;2022-12-18T02:43:14;26.33;;;11.18;;
16037;SDS011;8123;50.906;6.172;2022-12-18T02:45:47;36.53;;;11.80;;
16037;SDS011;8123;50.906;6.172;2022-12-18T02:48:24;28.35;;;11.02;;
16037;SDS011;8123;50.906;6.172;2022-12-18T02:50:59;30.15;;;10.88;;
16037;SDS011;8123;50.906;6.172;2022-12-18T02:53:38;26.85;;;10.40;;
16037;SDS011;8123;50.906;6.172;2022-12-18T02:56:21;30.55;;;11.70;;
16037;SDS011;8123;50.906;6.172;2022-12-18T03:01:40;28.75;;;11.20;;
16037;SDS011;8123;50.906;6.172;2022-12-18T03:04:19;29.13;;;11.02;;
16037;SDS011;8123;50.906;6.172;2022-12-18T03:07:05;29.15;;;10.50;;
16037;SDS011;8123;50.906;6.172;2022-12-18T03:09:38;34.28;;;11.32;;
16037;SDS011;8123;50.906;6.172;2022-12-18T03:12:15;29.58;;;12.60;;
16037;SDS011;8123;50.906;6.172;2022-12-18T03:15:12;30.63;;;11.10;;
16037;SDS011;8123;50.906;6.172;2022-12-18T03:17:41;28.73;;;11.68;;
16037;SDS011;8123;50.906;6.172;2022-12-18T03:20:20;31.63;;;10.70;;
16037;SDS011;8123;50.906;6.172;2022-12-18T03:22:49;36.60;;;12.50;;
16037;SDS011;8123;50.906;6.172;2022-12-18T03:25:19;41.30;;;12.77;;
16037;SDS011;8123;50.906;6.172;2022-12-18T03:27:47;29.38;;;11.93;;
16037;SDS011;8123;50.906;6.172;2022-12-18T03:30:16;26.55;;;12.00;;
16037;SDS011;8123;50.906;6.172;2022-12-18T03:32:52;33.85;;;12.15;;
16037;SDS011;8123;50.906;6.172;2022-12-18T03:35:23;26.83;;;11.38;;
16037;SDS011;8123;50.906;6.172;2022-12-18T03:37:56;30.73;;;12.10;;
16037;SDS011;8123;50.906;6.172;2022-12-18T03:40:23;29.30;;;11.80;;
16037;SDS011;8123;50.906;6.172;2022-12-18T03:43:18;28.15;;;10.88;;
16037;SDS011;8123;50.906;6.172;2022-12-18T03:46:08;27.70;;;10.40;;
16037;SDS011;8123;50.906;6.172;2022-12-18T03:48:48;33.95;;;11.52;;
16037;SDS011;8123;50.906;6.172;2022-12-18T03:51:24;33.03;;;12.70;;
16037;SDS011;8123;50.906;6.172;2022-12-18T03:53:58;32.17;;;10.95;;
16037;SDS011;8123;50.906;6.172;2022-12-18T03:56:26;34.70;;;12.70;;
16037;SDS011;8123;50.906;6.172;2022-12-18T03:58:56;30.65;;;12.80;;
16037;SDS011;8123;50.906;6.172;2022-12-18T04:01:46;29.63;;;11.77;;
16037;SDS011;8123;50.906;6.172;2022-12-18T04:04:14;36.50;;;12.82;;
16037;SDS011;8123;50.906;6.172;2022-12-18T04:06:41;39.88;;;13.07;;
16037;SDS011;8123;50.906;6.172;2022-12-18T04:09:08;34.72;;;12.15;;
16037;SDS011;8123;50.906;6.172;2022-12-18T04:11:34;38.00;;;13.65;;
16037;SDS011;8123;50.906;6.172;2022-12-18T04:14:00;34.47;;;12.63;;
16037;SDS011;8123;50.906;6.172;2022-12-18T04:16:26;35.30;;;13.30;;
16037;SDS011;8123;50.906;6.172;2022-12-18T04:18:52;30.95;;;11.85;;
16037;SDS011;8123;50.906;6.172;2022-12-18T04:21:18;30.95;;;13.73;;
16037;SDS011;8123;50.906;6.172;2022-12-18T04:23:45;37.20;;;13.52;;
16037;SDS011;8123;50.906;6.172;2022-12-18T04:26:11;40.40;;;14.77;;
16037;SDS011;8123;50.906;6.172;2022-12-18T04:28:37;38.92;;;13.57;;
16037;SDS011;8123;50.906;6.172;2022-12-18T04:31:03;41.13;;;14.17;;
16037;SDS011;8123;50.906;6.172;2022-12-18T04:33:29;29.63;;;11.67;;
16037;SDS011;8123;50.906;6.172;2022-12-18T04:35:54;29.90;;;13.23;;
16037;SDS011;8123;50.906;6.172;2022-12-18T04:38:20;27.77;;;12.43;;
16037;SDS011;8123;50.906;6.172;2022-12-18T04:40:46;33.77;;;13.27;;
16037;SDS011;8123;50.906;6.172;2022-12-18T04:43:11;39.43;;;13.50;;
16037;SDS011;8123;50.906;6.172;2022-12-18T04:45:37;38.97;;;13.77;;
16037;SDS011;8123;50.906;6.172;2022-12-18T04:48:03;43.70;;;13.37;;
16037;SDS011;8123;50.906;6.172;2022-12-18T04:50:29;28.88;;;11.65;;
16037;SDS011;8123;50.906;6.172;2022-12-18T04:52:55;35.10;;;12.88;;
16037;SDS011;8123;50.906;6.172;2022-12-18T04:55:24;40.77;;;13.40;;
16037;SDS011;8123;50.906;6.172;2022-12-18T04:57:49;32.90;;;12.18;;
16037;SDS011;8123;50.906;6.172;2022-12-18T05:00:15;31.30;;;13.77;;
16037;SDS011;8123;50.906;6.172;2022-12-18T05:02:41;37.40;;;14.40;;
16037;SDS011;8123;50.906;6.172;2022-12-18T05:05:07;35.93;;;13.73;;
16037;SDS011;8123;50.906;6.172;2022-12-18T05:07:33;41.60;;;13.60;;
16037;SDS011;8123;50.906;6.172;2022-12-18T05:09:59;30.90;;;13.67;;
16037;SDS011;8123;50.906;6.172;2022-12-18T05:12:24;39.53;;;14.43;;
16037;SDS011;8123;50.906;6.172;2022-12-18T05:14:50;36.50;;;14.10;;
16037;SDS011;8123;50.906;6.172;2022-12-18T05:17:16;30.50;;;14.10;;
16037;SDS011;8123;50.906;6.172;2022-12-18T05:19:41;40.53;;;14.53;;
16037;SDS011;8123;50.906;6.172;2022-12-18T05:22:07;40.37;;;13.90;;
16037;SDS011;8123;50.906;6.172;2022-12-18T05:24:33;33.33;;;13.23;;
16037;SDS011;8123;50.906;6.172;2022-12-18T05:26:59;44.43;;;14.10;;
16037;SDS011;8123;50.906;6.172;2022-12-18T05:29:24;30.10;;;14.07;;
16037;SDS011;8123;50.906;6.172;2022-12-18T05:31:50;32.53;;;13.00;;
16037;SDS011;8123;50.906;6.172;2022-12-18T05:34:16;31.63;;;13.70;;
16037;SDS011;8123;50.906;6.172;2022-12-18T05:36:41;38.07;;;13.40;;
16037;SDS011;8123;50.906;6.172;2022-12-18T05:39:07;36.03;;;13.00;;
16037;SDS011;8123;50.906;6.172;2022-12-18T05:41:33;28.77;;;12.27;;
16037;SDS011;8123;50.906;6.172;2022-12-18T05:43:59;33.30;;;13.97;;
16037;SDS011;8123;50.906;6.172;2022-12-18T05:46:25;39.67;;;15.05;;
16037;SDS011;8123;50.906;6.172;2022-12-18T05:48:51;37.63;;;12.80;;
16037;SDS011;8123;50.906;6.172;2022-12-18T05:51:18;39.67;;;13.17;;
16037;SDS011;8123;50.906;6.172;2022-12-18T05:53:45;35.20;;;12.90;;
16037;SDS011;8123;50.906;6.172;2022-12-18T05:56:13;32.72;;;12.82;;
16037;SDS011;8123;50.906;6.172;2022-12-18T05:58:41;38.80;;;15.23;;
16037;SDS011;8123;50.906;6.172;2022-12-18T06:01:08;31.70;;;12.50;;
16037;SDS011;8123;50.906;6.172;2022-12-18T06:03:38;37.53;;;14.65;;
16037;SDS011;8123;50.906;6.172;2022-12-18T06:06:04;45.08;;;13.93;;
16037;SDS011;8123;50.906;6.172;2022-12-18T06:08:41;37.55;;;13.75;;
16037;SDS011;8123;50.906;6.172;2022-12-18T06:11:07;37.53;;;13.20;;
16037;SDS011;8123;50.906;6.172;2022-12-18T06:13:32;37.13;;;13.07;;
16037;SDS011;8123;50.906;6.172;2022-12-18T06:16:01;39.30;;;14.73;;
16037;SDS011;8123;50.906;6.172;2022-12-18T06:18:28;30.23;;;12.30;;
16037;SDS011;8123;50.906;6.172;2022-12-18T06:20:54;34.77;;;12.27;;
16037;SDS011;8123;50.906;6.172;2022-12-18T06:23:21;39.58;;;15.23;;
16037;SDS011;8123;50.906;6.172;2022-12-18T06:25:47;35.67;;;14.50;;
16037;SDS011;8123;50.906;6.172;2022-12-18T06:28:12;36.23;;;14.90;;
16037;SDS011;8123;50.906;6.172;2022-12-18T06:30:38;37.73;;;12.53;;
16037;SDS011;8123;50.906;6.172;2022-12-18T06:33:03;48.43;;;16.07;;
16037;SDS011;8123;50.906;6.172;2022-12-18T06:35:31;36.47;;;11.80;;
16037;SDS011;8123;50.906;6.172;2022-12-18T06:37:57;36.92;;;14.98;;
16037;SDS011;8123;50.906;6.172;2022-12-18T06:40:22;34.93;;;14.00;;
16037;SDS011;8123;50.906;6.172;2022-12-18T06:42:48;31.17;;;14.53;;
16037;SDS011;8123;50.906;6.172;2022-12-18T06:45:14;37.07;;;14.37;;
16037;SDS011;8123;50.906;6.172;2022-12-18T06:47:40;29.10;;;12.68;;
16037;SDS011;8123;50.906;6.172;2022-12-18T06:50:06;36.90;;;15.30;;
16037;SDS011;8123;50.906;6.172;2022-12-18T06:52:32;35.15;;;13.43;;
16037;SDS011;8123;50.906;6.172;2022-12-18T06:54:58;31.00;;;13.63;;
16037;SDS011;8123;50.906;6.172;2022-12-18T06:57:24;40.30;;;14.98;;
16037;SDS011;8123;50.906;6.172;2022-12-18T06:59:50;39.83;;;15.37;;
16037;SDS011;8123;50.906;6.172;2022-12-18T07:02:16;37.10;;;14.68;;
16037;SDS011;8123;50.906;6.172;2022-12-18T07:04:42;41.67;;;15.63;;
16037;SDS011;8123;50.906;6.172;2022-12-18T07:07:08;35.93;;;13.80;;
16037;SDS011;8123;50.906;6.172;2022-12-18T07:09:33;36.13;;;15.30;;
16037;SDS011;8123;50.906;6.172;2022-12-18T07:11:59;40.07;;;16.53;;
16037;SDS011;8123;50.906;6.172;2022-12-18T07:14:24;39.47;;;15.13;;
16037;SDS011;8123;50.906;6.172;2022-12-18T07:16:50;46.93;;;16.00;;
16037;SDS011;8123;50.906;6.172;2022-12-18T07:19:16;45.80;;;16.53;;
16037;SDS011;8123;50.906;6.172;2022-12-18T07:21:41;31.27;;;14.17;;
16037;SDS011;8123;50.906;6.172;2022-12-18T07:24:07;46.33;;;16.00;;
16037;SDS011;8123;50.906;6.172;2022-12-18T07:26:33;43.63;;;14.93;;
16037;SDS011;8123;50.906;6.172;2022-12-18T07:28:58;40.47;;;17.20;;
16037;SDS011;8123;50.906;6.172;2022-12-18T07:31:24;39.77;;;13.90;;
16037;SDS011;8123;50.906;6.172;2022-12-18T07:33:51;42.70;;;14.23;;
16037;SDS011;8123;50.906;6.172;2022-12-18T07:36:17;35.92;;;14.98;;
16037;SDS011;8123;50.906;6.172;2022-12-18T07:38:46;52.60;;;16.80;;
16037;SDS011;8123;50.906;6.172;2022-12-18T07:41:12;41.25;;;16.67;;
16037;SDS011;8123;50.906;6.172;2022-12-18T07:43:39;39.88;;;15.85;;
16037;SDS011;8123;50.906;6.172;2022-12-18T07:46:06;45.90;;;16.65;;
16037;SDS011;8123;50.906;6.172;2022-12-18T07:48:33;52.85;;;16.83;;
16037;SDS011;8123;50.906;6.172;2022-12-18T07:51:03;36.20;;;15.57;;
16037;SDS011;8123;50.906;6.172;2022-12-18T07:53:30;41.17;;;15.18;;
16037;SDS011;8123;50.906;6.172;2022-12-18T07:55:57;48.22;;;16.55;;
16037;SDS011;8123;50.906;6.172;2022-12-18T07:58:24;55.78;;;15.75;;
16037;SDS011;8123;50.906;6.172;2022-12-18T08:00:50;36.72;;;16.00;;
16037;SDS011;8123;50.906;6.172;2022-12-18T08:03:17;48.25;;;17.00;;
16037;SDS011;8123;50.906;6.172;2022-12-18T08:05:43;48.67;;;17.27;;
16037;SDS011;8123;50.906;6.172;2022-12-18T08:08:09;37.03;;;15.60;;
16037;SDS011;8123;50.906;6.172;2022-12-18T08:10:35;34.73;;;15.27;;
16037;SDS011;8123;50.906;6.172;2022-12-18T08:13:02;52.88;;;18.30;;
16037;SDS011;8123;50.906;6.172;2022-12-18T08:15:27;41.93;;;16.43;;
16037;SDS011;8123;50.906;6.172;2022-12-18T08:17:55;39.33;;;16.73;;
16037;SDS011;8123;50.906;6.172;2022-12-18T08:20:21;47.10;;;17.60;;
16037;SDS011;8123;50.906;6.172;2022-12-18T08:22:47;46.97;;;17.67;;
16037;SDS011;8123;50.906;6.172;2022-12-18T08:25:13;46.20;;;18.50;;
16037;SDS011;8123;50.906;6.172;2022-12-18T08:27:39;55.17;;;20.77;;
16037;SDS011;8123;50.906;6.172;2022-12-18T08:30:05;53.00;;;18.40;;
16037;SDS011;8123;50.906;6.172;2022-12-18T08:32:31;52.78;;;19.40;;
16037;SDS011;8123;50.906;6.172;2022-12-18T08:34:57;43.20;;;18.90;;
16037;SDS011;8123;50.906;6.172;2022-12-18T08:37:23;49.65;;;18.52;;
16037;SDS011;8123;50.906;6.172;2022-12-18T08:39:49;40.33;;;17.00;;
16037;SDS011;8123;50.906;6.172;2022-12-18T08:42:15;43.53;;;16.33;;
16037;SDS011;8123;50.906;6.172;2022-12-18T08:47:31;44.67;;;17.67;;
16037;SDS011;8123;50.906;6.172;2022-12-18T08:49:56;46.90;;;18.10;;
16037;SDS011;8123;50.906;6.172;2022-12-18T08:52:22;40.27;;;16.53;;
16037;SDS011;8123;50.906;6.172;2022-12-18T08:54:47;46.47;;;18.80;;
16037;SDS011;8123;50.906;6.172;2022-12-18T08:57:13;38.20;;;16.57;;
16037;SDS011;8123;50.906;6.172;2022-12-18T08:59:38;36.23;;;15.50;;
16037;SDS011;8123;50.906;6.172;2022-12-18T09:02:04;50.70;;;17.37;;
16037;SDS011;8123;50.906;6.172;2022-12-18T09:04:30;44.67;;;17.17;;
16037;SDS011;8123;50.906;6.172;2022-12-18T09:06:56;36.47;;;15.80;;
16037;SDS011;8123;50.906;6.172;2022-12-18T09:09:21;45.03;;;17.90;;
16037;SDS011;8123;50.906;6.172;2022-12-18T09:11:47;38.10;;;16.27;;
16037;SDS011;8123;50.906;6.172;2022-12-18T09:14:13;40.53;;;16.77;;
16037;SDS011;8123;50.906;6.172;2022-12-18T09:16:38;34.43;;;15.33;;
16037;SDS011;8123;50.906;6.172;2022-12-18T09:19:04;36.50;;;15.33;;
16037;SDS011;8123;50.906;6.172;2022-12-18T09:21:32;33.67;;;16.08;;
16037;SDS011;8123;50.906;6.172;2022-12-18T09:23:59;45.13;;;17.15;;
16037;SDS011;8123;50.906;6.172;2022-12-18T09:26:25;40.37;;;16.63;;
16037;SDS011;8123;50.906;6.172;2022-12-18T09:28:52;43.97;;;15.80;;
16037;SDS011;8123;50.906;6.172;2022-12-18T09:31:18;39.50;;;16.07;;
16037;SDS011;8123;50.906;6.172;2022-12-18T09:33:45;43.33;;;16.90;;
16037;SDS011;8123;50.906;6.172;2022-12-18T09:36:11;37.50;;;17.07;;
16037;SDS011;8123;50.906;6.172;2022-12-18T09:38:39;37.38;;;15.48;;
16037;SDS011;8123;50.906;6.172;2022-12-18T09:47:11;49.88;;;19.90;;
16037;SDS011;8123;50.906;6.172;2022-12-18T09:49:42;41.05;;;15.82;;
16037;SDS011;8123;50.906;6.172;2022-12-18T09:54:53;38.17;;;14.98;;
16037;SDS011;8123;50.906;6.172;2022-12-18T09:57:29;41.55;;;16.73;;
16037;SDS011;8123;50.906;6.172;2022-12-18T09:59:59;40.53;;;17.83;;
16037;SDS011;8123;50.906;6.172;2022-12-18T10:02:32;37.75;;;16.50;;
16037;SDS011;8123;50.906;6.172;2022-12-18T10:13:26;35.63;;;15.65;;
16037;SDS011;8123;50.906;6.172;2022-12-18T10:16:08;32.65;;;14.40;;
16037;SDS011;8123;50.906;6.172;2022-12-18T10:18:52;35.58;;;16.75;;
16037;SDS011;8123;50.906;6.172;2022-12-18T10:24:27;40.28;;;15.57;;
16037;SDS011;8123;50.906;6.172;2022-12-18T10:29:56;39.60;;;16.70;;
16037;SDS011;8123;50.906;6.172;2022-12-18T10:32:27;35.60;;;17.13;;
16037;SDS011;8123;50.906;6.172;2022-12-18T10:34:55;41.60;;;17.50;;
16037;SDS011;8123;50.906;6.172;2022-12-18T10:37:23;54.28;;;18.13;;
16037;SDS011;8123;50.906;6.172;2022-12-18T10:40:10;36.90;;;16.23;;
16037;SDS011;8123;50.906;6.172;2022-12-18T10:42:37;33.42;;;16.08;;
16037;SDS011;8123;50.906;6.172;2022-12-18T10:45:08;36.13;;;15.90;;
16037;SDS011;8123;50.906;6.172;2022-12-18T10:47:45;36.53;;;15.82;;
16037;SDS011;8123;50.906;6.172;2022-12-18T10:52:55;37.45;;;15.35;;
16037;SDS011;8123;50.906;6.172;2022-12-18T10:55:22;40.47;;;16.40;;
16037;SDS011;8123;50.906;6.172;2022-12-18T10:57:55;44.28;;;17.27;;
16037;SDS011;8123;50.906;6.172;2022-12-18T11:01:11;45.33;;;15.77;;
16037;SDS011;8123;50.906;6.172;2022-12-18T11:06:20;33.38;;;15.40;;
16037;SDS011;8123;50.906;6.172;2022-12-18T11:09:03;39.47;;;15.35;;
16037;SDS011;8123;50.906;6.172;2022-12-18T11:11:31;40.55;;;15.27;;
16037;SDS011;8123;50.906;6.172;2022-12-18T11:14:02;34.78;;;14.95;;
16037;SDS011;8123;50.906;6.172;2022-12-18T11:16:29;43.47;;;17.35;;
16037;SDS011;8123;50.906;6.172;2022-12-18T11:19:34;35.72;;;16.15;;
16037;SDS011;8123;50.906;6.172;2022-12-18T11:21:58;35.20;;;15.73;;
16037;SDS011;8123;50.906;6.172;2022-12-18T11:24:30;38.63;;;15.40;;
16037;SDS011;8123;50.906;6.172;2022-12-18T11:26:58;37.00;;;17.00;;
16037;SDS011;8123;50.906;6.172;2022-12-18T11:29:36;40.00;;;16.73;;
16037;SDS011;8123;50.906;6.172;2022-12-18T11:35:15;34.00;;;15.32;;
16037;SDS011;8123;50.906;6.172;2022-12-18T11:38:28;40.35;;;15.70;;
16037;SDS011;8123;50.906;6.172;2022-12-18T11:40:38;34.90;;;15.57;;
16037;SDS011;8123;50.906;6.172;2022-12-18T11:45:51;40.00;;;16.90;;
16037;SDS011;8123;50.906;6.172;2022-12-18T11:51:32;39.63;;;15.25;;
16037;SDS011;8123;50.906;6.172;2022-12-18T11:54:17;32.13;;;14.93;;
16037;SDS011;8123;50.906;6.172;2022-12-18T12:00:18;46.67;;;17.48;;
16037;SDS011;8123;50.906;6.172;2022-12-18T12:05:31;44.08;;;17.85;;
16037;SDS011;8123;50.906;6.172;2022-12-18T12:11:20;37.13;;;14.80;;
16037;SDS011;8123;50.906;6.172;2022-12-18T12:16:37;31.40;;;15.20;;
16037;SDS011;8123;50.906;6.172;2022-12-18T12:22:08;38.60;;;16.73;;
16037;SDS011;8123;50.906;6.172;2022-12-18T12:24:58;41.22;;;15.07;;
16037;SDS011;8123;50.906;6.172;2022-12-18T12:30:22;39.15;;;16.30;;
16037;SDS011;8123;50.906;6.172;2022-12-18T12:33:08;38.30;;;16.30;;
16037;SDS011;8123;50.906;6.172;2022-12-18T12:36:16;43.47;;;16.58;;
16037;SDS011;8123;50.906;6.172;2022-12-18T12:39:06;34.67;;;14.85;;
16037;SDS011;8123;50.906;6.172;2022-12-18T12:41:35;42.78;;;17.20;;
16037;SDS011;8123;50.906;6.172;2022-12-18T12:44:24;38.60;;;16.75;;
16037;SDS011;8123;50.906;6.172;2022-12-18T12:46:56;42.60;;;16.67;;
16037;SDS011;8123;50.906;6.172;2022-12-18T12:49:26;40.67;;;17.60;;
16037;SDS011;8123;50.906;6.172;2022-12-18T12:52:06;37.95;;;16.38;;
16037;SDS011;8123;50.906;6.172;2022-12-18T12:54:36;37.90;;;16.35;;
16037;SDS011;8123;50.906;6.172;2022-12-18T13:00:02;39.75;;;16.92;;
16037;SDS011;8123;50.906;6.172;2022-12-18T13:05:31;35.55;;;16.80;;
16037;SDS011;8123;50.906;6.172;2022-12-18T13:08:07;32.00;;;15.10;;
16037;SDS011;8123;50.906;6.172;2022-12-18T13:10:51;37.08;;;16.73;;
16037;SDS011;8123;50.906;6.172;2022-12-18T13:13:47;34.83;;;15.82;;
16037;SDS011;8123;50.906;6.172;2022-12-18T13:16:19;37.03;;;15.65;;
16037;SDS011;8123;50.906;6.172;2022-12-18T13:18:50;37.97;;;17.15;;
16037;SDS011;8123;50.906;6.172;2022-12-18T13:21:24;39.70;;;17.13;;
16037;SDS011;8123;50.906;6.172;2022-12-18T13:23:55;37.63;;;17.30;;
16037;SDS011;8123;50.906;6.172;2022-12-18T13:26:33;43.03;;;18.27;;
16037;SDS011;8123;50.906;6.172;2022-12-18T13:28:59;34.37;;;16.77;;
16037;SDS011;8123;50.906;6.172;2022-12-18T13:34:18;39.22;;;17.35;;
16037;SDS011;8123;50.906;6.172;2022-12-18T13:36:54;38.85;;;17.77;;
16037;SDS011;8123;50.906;6.172;2022-12-18T13:43:41;49.15;;;17.50;;
16037;SDS011;8123;50.906;6.172;2022-12-18T13:47:28;40.60;;;15.80;;
16037;SDS011;8123;50.906;6.172;2022-12-18T13:50:41;42.08;;;17.30;;
16037;SDS011;8123;50.906;6.172;2022-12-18T13:58:23;45.97;;;16.55;;
16037;SDS011;8123;50.906;6.172;2022-12-18T14:00:49;42.47;;;17.97;;
16037;SDS011;8123;50.906;6.172;2022-12-18T14:03:25;39.27;;;17.63;;
16037;SDS011;8123;50.906;6.172;2022-12-18T14:05:53;36.50;;;17.00;;
16037;SDS011;8123;50.906;6.172;2022-12-18T14:08:21;39.03;;;17.45;;
16037;SDS011;8123;50.906;6.172;2022-12-18T14:10:49;42.42;;;18.25;;
16037;SDS011;8123;50.906;6.172;2022-12-18T14:13:32;37.90;;;16.60;;
16037;SDS011;8123;50.906;6.172;2022-12-18T14:16:04;41.97;;;17.40;;
16037;SDS011;8123;50.906;6.172;2022-12-18T14:21:14;41.13;;;18.13;;
16037;SDS011;8123;50.906;6.172;2022-12-18T14:23:48;33.88;;;16.35;;
16037;SDS011;8123;50.906;6.172;2022-12-18T14:26:26;42.35;;;17.00;;
16037;SDS011;8123;50.906;6.172;2022-12-18T14:28:57;45.42;;;16.80;;
16037;SDS011;8123;50.906;6.172;2022-12-18T14:31:26;38.92;;;16.38;;
16037;SDS011;8123;50.906;6.172;2022-12-18T14:33:54;45.72;;;17.10;;
16037;SDS011;8123;50.906;6.172;2022-12-18T14:36:24;42.13;;;17.25;;
16037;SDS011;8123;50.906;6.172;2022-12-18T14:38:55;39.53;;;17.55;;
16037;SDS011;8123;50.906;6.172;2022-12-18T14:41:23;47.88;;;16.77;;
16037;SDS011;8123;50.906;6.172;2022-12-18T14:43:50;44.35;;;17.40;;
16037;SDS011;8123;50.906;6.172;2022-12-18T14:49:44;43.97;;;17.60;;
16037;SDS011;8123;50.906;6.172;2022-12-18T14:52:01;43.92;;;18.27;;
16037;SDS011;8123;50.906;6.172;2022-12-18T14:54:31;42.05;;;18.13;;
16037;SDS011;8123;50.906;6.172;2022-12-18T14:57:14;42.80;;;20.40;;
16037;SDS011;8123;50.906;6.172;2022-12-18T14:59:48;42.60;;;18.42;;
16037;SDS011;8123;50.906;6.172;2022-12-18T15:02:25;41.88;;;19.27;;
16037;SDS011;8123;50.906;6.172;2022-12-18T15:07:27;47.97;;;17.73;;
16037;SDS011;8123;50.906;6.172;2022-12-18T15:12:43;35.95;;;18.75;;
16037;SDS011;8123;50.906;6.172;2022-12-18T15:15:46;42.17;;;18.13;;
16037;SDS011;8123;50.906;6.172;2022-12-18T15:20:41;44.53;;;17.48;;
16037;SDS011;8123;50.906;6.172;2022-12-18T15:26:11;51.53;;;19.05;;
16037;SDS011;8123;50.906;6.172;2022-12-18T15:28:46;38.53;;;17.48;;
16037;SDS011;8123;50.906;6.172;2022-12-18T15:36:18;50.80;;;18.38;;
16037;SDS011;8123;50.906;6.172;2022-12-18T15:38:48;44.95;;;20.25;;
16037;SDS011;8123;50.906;6.172;2022-12-18T15:41:19;46.22;;;21.10;;
16037;SDS011;8123;50.906;6.172;2022-12-18T15:43:46;47.33;;;21.42;;
16037;SDS011;8123;50.906;6.172;2022-12-18T15:46:14;45.95;;;20.45;;
16037;SDS011;8123;50.906;6.172;2022-12-18T15:48:44;55.05;;;21.90;;
16037;SDS011;8123;50.906;6.172;2022-12-18T15:51:13;69.25;;;22.25;;
16037;SDS011;8123;50.906;6.172;2022-12-18T15:53:41;60.10;;;22.02;;
16037;SDS011;8123;50.906;6.172;2022-12-18T15:56:11;56.30;;;22.38;;
16037;SDS011;8123;50.906;6.172;2022-12-18T15:58:56;49.78;;;19.70;;
16037;SDS011;8123;50.906;6.172;2022-12-18T16:01:23;46.75;;;20.67;;
16037;SDS011;8123;50.906;6.172;2022-12-18T16:03:51;48.20;;;20.00;;
16037;SDS011;8123;50.906;6.172;2022-12-18T16:06:16;47.60;;;19.70;;
16037;SDS011;8123;50.906;6.172;2022-12-18T16:08:42;54.73;;;21.10;;
16037;SDS011;8123;50.906;6.172;2022-12-18T16:11:41;49.97;;;20.90;;
16037;SDS011;8123;50.906;6.172;2022-12-18T16:16:52;53.20;;;22.92;;
16037;SDS011;8123;50.906;6.172;2022-12-18T16:19:19;45.88;;;19.27;;
16037;SDS011;8123;50.906;6.172;2022-12-18T16:21:46;47.13;;;21.50;;
16037;SDS011;8123;50.906;6.172;2022-12-18T16:24:13;49.20;;;21.40;;
16037;SDS011;8123;50.906;6.172;2022-12-18T16:26:41;53.88;;;22.33;;
16037;SDS011;8123;50.906;6.172;2022-12-18T16:29:07;49.08;;;20.48;;
16037;SDS011;8123;50.906;6.172;2022-12-18T16:31:33;50.33;;;21.00;;
16037;SDS011;8123;50.906;6.172;2022-12-18T16:36:47;45.28;;;19.92;;
16037;SDS011;8123;50.906;6.172;2022-12-18T16:39:13;50.40;;;20.25;;
16037;SDS011;8123;50.906;6.172;2022-12-18T16:41:39;52.97;;;21.20;;
16037;SDS011;8123;50.906;6.172;2022-12-18T16:44:05;55.00;;;22.80;;
16037;SDS011;8123;50.906;6.172;2022-12-18T16:46:30;53.53;;;20.90;;
16037;SDS011;8123;50.906;6.172;2022-12-18T16:48:57;50.07;;;20.17;;
16037;SDS011;8123;50.906;6.172;2022-12-18T16:51:23;65.40;;;20.70;;
16037;SDS011;8123;50.906;6.172;2022-12-18T16:53:49;62.47;;;22.97;;
16037;SDS011;8123;50.906;6.172;2022-12-18T16:56:15;51.13;;;21.07;;
16037;SDS011;8123;50.906;6.172;2022-12-18T16:58:40;51.30;;;21.07;;
16037;SDS011;8123;50.906;6.172;2022-12-18T17:01:07;47.87;;;20.00;;